Flight Track Log - Related Links

Times and Time Zones

All times are in EDT time to prevent confusion due to time zone crossing. See the DAL268 flight status page for this flight to view local times or setup timezone preferences in your user account.

Time Position Orientation Groundspeed Altitude Reporting Facility
EDT Latitude Longitude Course Direction KTS MPH feet Rate Location/Type
Tue 11:41:26 PM 40.6390 -73.7780 North  Level FlightAware
Tue 11:43:48 PM 40.6390 -73.7770 90° East 10 12 51 Level FlightAware
Tue 11:44:17 PM 40.6400 -73.7770 360° North 9 10 58 Level FlightAware
Tue 11:46:00 PM 40.6000 -73.4779 90° East  Level FlightAware
Tue 11:46:19 PM 40.6390 -73.7770 90° East 12 14  Level FlightAware
Tue 11:46:46 PM 40.6380 -73.7760 143° Southeast 10 12 66 Level FlightAware
Tue 11:49:00 PM 40.5843 -73.3871 108° East  Level FlightAware
Tue 11:50:00 PM 40.5647 -73.2117 97° East  Level FlightAware
Tue 11:51:00 PM 40.5500 -73.0306 90° East  Level FlightAware
Tue 11:52:00 PM 40.5813 -72.8580 72° East  Level FlightAware
Tue 11:53:16 PM 40.6360 -73.7760 217° Southwest 25 29  Level FlightAware
Tue 11:53:46 PM 40.6350 -73.7760 180° South 22 25 115 Level FlightAware
Tue 11:54:12 PM 40.6340 -73.7740 123° Southeast 34 39 121 Level FlightAware
Tue 11:54:30 PM 40.6340 -73.7720 90° East 32 37 127 Level FlightAware
Tue 11:54:42 PM 40.6330 -73.7710 143° Southeast 27 31 131 Level FlightAware
Tue 11:55:11 PM 40.6330 -73.7700 90° East 22 25 135 Level FlightAware
Tue 11:55:38 PM 40.6320 -73.7690 143° Southeast 17 20 143 Level FlightAware
Tue 11:56:06 PM 40.6320 -73.7680 90° East 19 22 152 Level FlightAware
Tue 11:56:34 PM 40.6310 -73.7680 180° South 17 20 163 Level FlightAware
Tue 11:59:00 PM 40.5833 -73.3477 90° East  Level FlightAware
Wed 12:00:00 AM 40.5612 -73.1724 97° East  Level FlightAware
Wed 12:00:12 AM 40.6300 -73.7680 97° East 19 22  Level FlightAware
Wed 12:01:26 AM 40.6300 -73.7690 270° West 413 Level FlightAware
Wed 12:01:55 AM 40.6330 -73.7740 308° West 82 94 767 Level FlightAware
Wed 12:02:24 AM 40.6420 -73.7950 299° West 165 190 1,158 Level FlightAware
Wed 12:02:52 AM 40.6530 -73.8210 299° West 170 196 1,100 1,962 Climbing FlightAware
Wed 12:03:16 AM 40.6470 -73.8460 252° West 188 216 1,700 1,227 Climbing FlightAware
Wed 12:03:36 AM 40.6320 -73.8610 217° Southwest 216 249 2,000 800 Climbing FlightAware
Wed 12:03:46 AM 40.6220 -73.8650 197° South 236 272 2,100 1,000 Climbing FlightAware
Wed 12:04:18 AM 40.5870 -73.8480 160° South 283 326 2,700 1,091 Climbing FlightAware
Wed 12:04:30 AM 40.5770 -73.8300 126° Southeast 298 343 2,900 1,286 Climbing FlightAware
Wed 12:04:46 AM 40.5700 -73.8040 110° East 307 353 3,300 2,087 Climbing FlightAware
Wed 12:05:39 AM 40.5760 -73.7090 85° East 322 371 5,300 2,458 Climbing FlightAware
Wed 12:06:09 AM 40.5790 -73.6440 87° East 337 388 6,700 2,786 Climbing FlightAware
Wed 12:06:35 AM 40.5780 -73.5900 91° East 339 390 7,900 2,704 Climbing FlightAware
Wed 12:07:20 AM 40.5770 -73.4940 91° East 349 402 9,900 2,259 Climbing FlightAware
Wed 12:08:00 AM 40.5750 -73.4070 92° East 373 429 11,100 1,692 Climbing FlightAware
Wed 12:08:38 AM 40.5730 -73.3180 92° East 400 460 12,100 1,465 Climbing FlightAware
Wed 12:09:26 AM 40.5810 -73.1960 85° East 428 493 13,200 1,773 Climbing FlightAware
Wed 12:10:06 AM 40.6200 -73.1050 61° Northeast 434 499 14,700 2,214 Climbing FlightAware
Wed 12:10:50 AM 40.6630 -73.0020 61° Northeast 445 512 16,300 2,023 Climbing FlightAware
Wed 12:11:32 AM 40.7060 -72.9020 60° Northeast 455 524 17,600 1,829 Climbing FlightAware
Wed 12:12:12 AM 40.7480 -72.8030 61° Northeast 465 535 18,800 1,786 Climbing FlightAware
Wed 12:12:56 AM 40.7930 -72.6940 61° Northeast 475 547 20,100 1,643 Climbing FlightAware
Wed 12:13:36 AM 40.8370 -72.5900 61° Northeast 486 559 21,100 1,590 Climbing FlightAware
Wed 12:14:19 AM 40.8850 -72.4750 61° Northeast 495 570 22,300 1,532 Climbing FlightAware
Wed 12:15:10 AM 40.9410 -72.3400 61° Northeast 505 581 23,500 1,326 Climbing FlightAware
Wed 12:15:54 AM 40.9870 -72.2300 61° Northeast 514 592 24,400 1,400 Climbing FlightAware
Wed 12:16:40 AM 41.0440 -72.0910 61° Northeast 523 602 25,600 1,080 Climbing FlightAware
Wed 12:17:34 AM 41.0990 -71.9570 61° Northeast 523 602 26,200 1,340 Climbing FlightAware
Wed 12:18:14 AM 41.1360 -71.8630 62° Northeast 533 613 27,700 1,624 Climbing FlightAware
Wed 12:18:59 AM 41.2010 -71.7020 62° Northeast 540 621 28,500 1,200 Climbing FlightAware
Wed 12:19:39 AM 41.2520 -71.5770 61° Northeast 541 623 29,400 1,350 Climbing FlightAware
Wed 12:20:19 AM 41.2980 -71.4610 62° Northeast 542 624 30,300 1,091 Climbing FlightAware
Wed 12:21:07 AM 41.3520 -71.3270 62° Northeast 544 626 31,000 494 Climbing FlightAware
Wed 12:21:44 AM 41.3980 -71.2110 62° Northeast 543 625 31,000  Level FlightAware
Wed 12:22:29 AM 41.4470 -71.0880 62° Northeast 540 621 31,000  Level FlightAware
Wed 12:23:23 AM 41.5110 -70.9270 62° Northeast 537 618 31,000  Level FlightAware
Wed 12:24:03 AM 41.5590 -70.8040 62° Northeast 538 619 31,000  Level FlightAware
Wed 12:25:16 AM 41.6410 -70.5940 62° Northeast 538 619 31,000  Level FlightAware
Wed 12:25:55 AM 41.6790 -70.4960 63° Northeast 538 619 31,000  Level FlightAware
Wed 12:26:43 AM 41.7250 -70.3750 63° Northeast 538 619 31,000  Level FlightAware
Wed 12:27:57 AM 41.8270 -70.1150 62° Northeast 31,000  Level FlightAware
Wed 12:28:57 AM 41.8960 -69.9320 63° Northeast 537 618 31,000  Level FlightAware
Wed 12:29:41 AM 41.9470 -69.7980 63° Northeast 537 618 31,000  Level FlightAware
Wed 12:30:17 AM 41.9870 -69.6940 63° Northeast 537 618 31,000  Level FlightAware
Wed 12:31:22 AM 42.0620 -69.4950 63° Northeast 537 618 31,000  Level FlightAware
Wed 12:31:57 AM 42.1010 -69.3900 63° Northeast 537 618 31,000  Level FlightAware
Wed 12:32:47 AM 42.1570 -69.2410 63° Northeast 535 616 31,000  Level FlightAware
Wed 12:33:23 AM 42.1960 -69.1360 63° Northeast 536 617 31,000  Level FlightAware
Wed 12:34:08 AM 42.2460 -69.0010 63° Northeast 534 615 31,000  Level FlightAware
Wed 12:34:48 AM 42.2900 -68.8810 64° Northeast 535 616 31,000  Level FlightAware
Wed 12:35:28 AM 42.3350 -68.7590 63° Northeast 535 616 31,000  Level FlightAware
Wed 12:36:13 AM 42.3820 -68.6280 64° Northeast 535 616 31,000  Level FlightAware
Wed 12:36:53 AM 42.4280 -68.5020 64° Northeast 533 613 31,000  Level FlightAware
Wed 12:37:35 AM 42.4680 -68.3930 64° Northeast 533 613 31,000  Level FlightAware
Wed 12:38:33 AM 42.5360 -68.2040 64° Northeast 531 611 31,000  Level FlightAware
Wed 12:39:11 AM 42.5710 -68.1070 64° Northeast 531 611 31,000  Level FlightAware
Wed 12:39:59 AM 42.6150 -67.9850 64° Northeast 531 611 31,000  Level FlightAware
Wed 12:40:43 AM 42.6550 -67.8730 64° Northeast 531 611 31,000  Level FlightAware
Wed 12:41:19 AM 42.6880 -67.7810 64° Northeast 531 611 31,000  Level FlightAware
Wed 12:42:08 AM 42.7330 -67.6560 64° Northeast 531 611 31,000  Level FlightAware
Wed 12:42:44 AM 42.7660 -67.5640 64° Northeast 531 611 31,000  Level FlightAware
Wed 12:43:32 AM 42.8100 -67.4410 64° Northeast 531 611 31,000  Level FlightAware
Wed 12:44:08 AM 42.8430 -67.3490 64° Northeast 531 611 31,000  Level FlightAware
Wed 12:44:56 AM 42.8870 -67.2260 64° Northeast 531 611 31,000  Level FlightAware
Wed 12:45:32 AM 42.9200 -67.1340 64° Northeast 531 611 31,000  Level FlightAware
Wed 12:46:09 AM 42.9530 -67.0390 65° Northeast 531 611 31,000  Level FlightAware
Wed 12:46:57 AM 42.9970 -66.9150 64° Northeast 531 611 31,000  Level FlightAware
Wed 12:47:36 AM 43.1110 -66.5480 67° East 541 623 31,000  Level FlightAware
Wed 12:48:21 AM 43.1620 -66.3940 66° East 543 625 31,000  Level FlightAware
Wed 12:49:07 AM 43.2100 -66.2510 65° Northeast 546 628 31,000  Level FlightAware
Wed 12:49:46 AM 43.2510 -66.1260 66° East 547 629 31,000  Level FlightAware
Wed 12:50:22 AM 43.2880 -66.0140 66° East 547 629 31,000  Level FlightAware
Wed 12:51:11 AM 43.3400 -65.8570 65° Northeast 547 629 31,000  Level FlightAware
Wed 12:51:51 AM 43.3760 -65.7450 66° East 547 629 31,000  Level FlightAware
Wed 12:52:32 AM 43.4230 -65.6020 66° East 549 632 31,000  Level FlightAware
Wed 12:53:17 AM 43.4690 -65.4600 66° East 550 633 31,000  Level FlightAware
Wed 12:53:57 AM 43.5110 -65.3300 66° East 551 634 31,000  Level FlightAware
Wed 12:54:41 AM 43.5560 -65.1870 66° East 548 631 31,000  Level FlightAware
Wed 12:55:22 AM 43.5980 -65.0560 66° East 548 631 31,000  Level FlightAware
Wed 12:56:07 AM 43.6430 -64.9140 66° East 547 629 31,000  Level FlightAware
Wed 12:56:46 AM 43.6800 -64.7940 67° East 548 631 31,000  Level FlightAware
Wed 12:57:22 AM 43.7180 -64.6710 67° East 548 631 31,000  Level FlightAware
Wed 12:58:11 AM 43.7670 -64.5130 67° East 551 634 31,000  Level FlightAware
Wed 12:59:07 AM 43.8180 -64.3480 67° East 552 635 31,000  Level FlightAware
Wed 12:59:46 AM 43.8620 -64.2060 67° East 555 639 31,000  Level FlightAware
Wed 01:00:47 AM 43.9100 -64.0490 67° East 560 644 31,000  Level FlightAware
Wed 01:01:24 AM 43.9590 -63.8870 67° East 566 651 31,000  Level FlightAware
Wed 01:02:04 AM 44.0000 -63.7510 67° East 569 655 31,000  Level FlightAware
Wed 01:02:41 AM 44.0360 -63.6320 67° East 570 656 31,000  Level FlightAware
Wed 01:03:25 AM 44.0830 -63.4750 67° East 569 655 31,000  Level FlightAware
Wed 01:04:09 AM 44.1260 -63.3300 68° East 567 652 31,000  Level FlightAware
Wed 01:04:45 AM 44.1630 -63.2060 67° East 566 651 31,000  Level FlightAware
Wed 01:05:28 AM 44.2040 -63.0640 68° East 566 651 31,000  Level FlightAware
Wed 01:06:08 AM 44.2390 -62.9440 68° East 569 655 31,000  Level FlightAware
Wed 01:06:49 AM 44.2730 -62.8260 68° East 569 655 31,000  Level FlightAware
Wed 01:07:38 AM 44.3150 -62.6830 68° East 569 655 31,000  Level FlightAware
Wed 01:08:15 AM 44.3460 -62.5760 68° East 569 655 31,000  Level FlightAware
Wed 01:09:04 AM 44.3870 -62.4340 68° East 569 655 31,000  Level FlightAware
Wed 01:09:40 AM 44.4170 -62.3290 68° East 569 655 31,000  Level FlightAware
Wed 01:10:27 AM 44.4560 -62.1930 68° East 569 655 31,000  Level FlightAware
Wed 01:11:29 AM 44.5080 -62.0120 68° East 569 655 31,000  Level FlightAware
Wed 01:12:07 AM 44.5400 -61.9020 68° East 569 655 31,000  Level FlightAware
Wed 01:12:55 AM 44.5800 -61.7620 68° East 569 655 31,000  Level FlightAware
Wed 01:13:31 AM 44.6100 -61.6570 68° East 569 655 31,000  Level FlightAware
Wed 01:14:19 AM 44.6510 -61.5170 68° East 569 655 31,000  Level FlightAware
Wed 01:14:55 AM 44.6810 -61.4120 68° East 569 655 31,000  Level FlightAware
Wed 01:15:36 AM 44.7150 -61.2930 68° East 569 655 31,000  Level FlightAware
Wed 01:17:35 AM 44.8890 -60.5970 70° East 553 636 31,000  Level FlightAware
Wed 01:18:19 AM 44.9280 -60.4500 69° East 555 639 31,000  Level FlightAware
Wed 01:18:59 AM 44.9640 -60.3130 70° East 555 639 31,000  Level FlightAware
Wed 01:19:43 AM 45.0030 -60.1630 70° East 555 639 31,000  Level FlightAware
Wed 01:20:25 AM 45.0400 -60.0210 70° East 555 639 31,000  Level FlightAware
Wed 01:21:05 AM 45.0750 -59.8870 70° East 556 640 31,000  Level FlightAware
Wed 01:21:47 AM 45.1120 -59.7410 70° East 554 638 31,000  Level FlightAware
Wed 01:22:29 AM 45.1490 -59.5990 70° East 554 638 31,000  Level FlightAware
Wed 01:23:13 AM 45.1870 -59.4470 70° East 553 636 31,000  Level FlightAware
Wed 01:23:53 AM 45.2210 -59.3130 70° East 552 635 31,000  Level FlightAware
Wed 01:24:33 AM 45.2550 -59.1760 71° East 553 636 31,000  Level FlightAware
Wed 01:25:21 AM 45.2960 -59.0100 71° East 551 634 31,000  Level FlightAware
Wed 01:25:53 AM 45.3230 -58.9020 70° East 550 633 31,000  Level FlightAware
Wed 01:26:37 AM 45.3600 -58.7500 71° East 550 633 31,000  Level FlightAware
Wed 01:27:17 AM 45.3930 -58.6160 71° East 549 632 31,000  Level FlightAware
Wed 01:27:59 AM 45.4280 -58.4710 71° East 550 633 31,000  Level FlightAware
Wed 01:28:43 AM 45.4640 -58.3210 71° East 550 633 31,000  Level FlightAware
Wed 01:29:23 AM 45.4950 -58.1890 71° East 550 633 31,000  Level FlightAware
Wed 01:30:01 AM 45.5270 -58.0540 71° East 550 633 31,000  Level FlightAware
Wed 01:30:54 AM 45.5610 -57.9140 71° East 550 633 31,000  Level FlightAware
Wed 01:31:42 AM 45.5950 -57.7740 71° East 550 633 31,000  Level FlightAware
Wed 01:32:18 AM 45.6200 -57.6690 71° East 550 633 31,000  Level FlightAware
Wed 01:33:06 AM 45.6540 -57.5280 71° East 550 633 31,000  Level FlightAware
Wed 01:33:42 AM 45.6790 -57.4230 71° East 550 633 31,000  Level FlightAware
Wed 01:34:31 AM 45.7140 -57.2800 71° East 550 633 31,000  Level FlightAware
Wed 01:35:07 AM 45.7390 -57.1740 71° East 550 633 31,000  Level FlightAware
Wed 01:35:56 AM 45.7730 -57.0310 71° East 550 633 31,000  Level FlightAware
Wed 01:36:37 AM 45.8340 -56.7010 75° East 558 642 31,000  Level FlightAware
Wed 01:37:13 AM 45.8570 -56.5930 73° East 558 642 31,000  Level FlightAware
Wed 01:38:01 AM 45.8880 -56.4480 73° East 558 642 31,000  Level FlightAware
Wed 01:38:44 AM 45.9320 -56.2260 74° East 563 648 31,000  Level FlightAware
Wed 01:39:24 AM 45.9610 -56.0840 74° East 564 649 31,000  Level FlightAware
Wed 01:40:18 AM 46.0010 -55.8870 74° East 564 649 31,000  Level FlightAware
Wed 01:40:56 AM 46.0250 -55.7670 74° East 564 649 31,000  Level FlightAware
Wed 01:41:46 AM 46.0570 -55.6150 73° East 564 649 31,000  Level FlightAware
Wed 01:42:27 AM 46.0940 -55.4190 75° East 568 654 31,000  Level FlightAware
Wed 01:43:07 AM 46.1210 -55.2760 75° East 567 652 31,000  Level FlightAware
Wed 01:43:52 AM 46.1520 -55.1190 74° East 569 655 31,000  Level FlightAware
Wed 01:44:32 AM 46.1810 -54.9700 74° East 570 656 31,000  Level FlightAware
Wed 01:45:38 AM 46.2270 -54.7250 75° East 571 657 31,000  Level FlightAware
Wed 01:46:26 AM 46.2610 -54.5450 75° East 572 658 31,000  Level FlightAware
Wed 01:47:06 AM 46.2890 -54.3960 75° East 573 659 31,000  Level FlightAware
Wed 01:47:46 AM 46.3150 -54.2570 75° East 574 661 31,000  Level FlightAware
Wed 01:48:32 AM 46.3480 -54.0790 75° East 575 662 31,000  Level FlightAware
Wed 01:49:12 AM 46.3750 -53.9310 75° East 577 664 31,000  Level FlightAware
Wed 01:49:56 AM 46.4050 -53.7660 75° East 578 665 31,000  Level FlightAware
Wed 01:50:32 AM 46.4250 -53.6520 76° East 579 666 31,000  Level FlightAware
Wed 01:51:16 AM 46.4580 -53.4670 75° East 580 667 31,000  Level FlightAware
Wed 01:51:56 AM 46.4850 -53.3150 75° East 580 667 31,000 73 Level FlightAware
Wed 01:52:38 AM 46.5120 -53.1620 76° East 581 669 31,100 651 Climbing FlightAware
Wed 01:53:19 AM 46.5400 -53.0030 76° East 586 674 31,900 1,085 Climbing FlightAware
Wed 01:54:12 AM 46.5750 -52.8000 76° East 590 679 32,800 1,041 Climbing FlightAware
Wed 01:54:57 AM 46.6040 -52.6270 76° East 592 681 33,600 1,047 Climbing FlightAware
Wed 01:55:38 AM 46.6310 -52.4700 76° East 592 681 34,300 988 Climbing FlightAware
Wed 01:56:22 AM 46.6600 -52.2950 76° East 592 681 35,000 488 Climbing FlightAware
Wed 01:57:04 AM 46.6870 -52.1300 77° East 592 681 35,000  Level FlightAware
Wed 01:57:48 AM 46.7140 -51.9620 77° East 590 679 35,000  Level FlightAware
Wed 01:58:00 AM 46.6667 -52.5000 78° East 543 625 35,000  Level ETMS Enhanced
Wed 01:58:24 AM 46.7000 -51.8000 78° East 590 679 35,000  Level Gander Center
Wed 01:58:30 AM 46.7400 -51.7970 77° East 589 678 35,000  Level FlightAware
Wed 01:59:10 AM 46.7650 -51.6450 76° East 588 677 35,000  Level FlightAware
Wed 01:59:52 AM 46.7880 -51.4990 77° East 589 678 35,000  Level FlightAware
Wed 02:00:38 AM 46.8130 -51.3420 77° East 590 679 35,000  Level FlightAware
Wed 02:01:18 AM 46.8410 -51.1570 77° East 591 680 35,000  Level FlightAware
Wed 02:01:57 AM 46.8660 -50.9960 77° East 593 682 35,000  Level FlightAware
Wed 02:02:40 AM 46.8880 -50.8560 77° East 593 682 35,000  Level FlightAware
Wed 02:03:16 AM 46.9070 -50.7360 77° East 593 682 35,000  Level FlightAware
Wed 02:04:04 AM 46.9320 -50.5760 78° East 593 682 35,000  Level FlightAware
Wed 02:04:41 AM 46.9510 -50.4530 77° East 593 682 35,000  Level FlightAware
Wed 02:05:28 AM 46.9760 -50.2970 77° East 593 682 35,000  Level FlightAware
Wed 02:06:04 AM 46.9950 -50.1770 77° East 593 682 35,000  Level FlightAware
Wed 02:06:52 AM 47.0200 -50.0170 77° East 593 682 35,000  Level FlightAware
Wed 02:07:00 AM 47.0000 -50.0000 70° East 570 656 35,000  Level ETMS Enhanced
Wed 02:07:24 AM 47.0333 -49.6833 70° East 590 679 35,000  Level Gander Center
Wed 02:07:38 AM 47.0440 -49.8640 77° East 593 682 35,000  Level FlightAware
Wed 02:08:15 AM 47.0630 -49.7400 77° East 593 682 35,000  Level FlightAware
Wed 02:08:24 AM 47.1000 -49.4500 67° East 590 679 35,000  Level Gander Center
Wed 02:08:52 AM 47.0830 -49.6170 77° East 593 682 35,000  Level FlightAware
Wed 02:09:24 AM 47.1500 -49.2167 72° East 590 679 35,000  Level Gander Center
Wed 02:09:41 AM 47.1080 -49.4530 77° East 593 682 35,000  Level FlightAware
Wed 02:09:41 AM 47.1667 -49.1667 64° Northeast 590 679 35,000  Level Gander Center
Wed 02:10:17 AM 47.1270 -49.3330 77° East 593 682 35,000  Level FlightAware
Wed 02:10:24 AM 47.2000 -49.0000 74° East 590 679 35,000  Level Gander Center
Wed 02:11:24 AM 47.2667 -48.8000 64° Northeast 590 679 35,000  Level Gander Center
Wed 02:11:33 AM 47.1670 -49.0790 77° East 593 682 35,000  Level FlightAware
Wed 02:12:24 AM 47.3167 -48.5500 73° East 600 690 35,000  Level Gander Center
Wed 02:12:41 AM 47.3333 -48.4833 70° East 590 679 35,000  Level Gander Center
Wed 02:13:41 AM 47.3833 -48.2500 72° East 590 679 35,000  Level Gander Center
Wed 02:14:24 AM 47.4167 -48.0833 73° East 590 679 35,000  Level Gander Center
Wed 02:15:24 AM 47.4833 -47.8667 65° Northeast 600 690 35,000  Level Gander Center
Wed 02:15:41 AM 47.5000 -47.7833 73° East 600 690 35,000  Level Gander Center
Wed 02:16:41 AM 47.5333 -47.5500 78° East 590 679 35,000  Level Gander Center
Wed 02:17:41 AM 47.5833 -47.3167 72° East 600 690 35,000  Level Gander Center
Wed 02:18:24 AM 47.6333 -47.1667 64° Northeast 600 690 35,000  Level Gander Center
Wed 02:19:24 AM 47.7000 -46.9333 67° East 590 679 35,000  Level Gander Center
Wed 02:20:24 AM 47.7333 -46.7000 78° East 590 679 35,000  Level Gander Center
Wed 02:23:00 AM 47.8073 -46.3664 72° East  Level FlightAware
Wed 02:30:00 AM 48.1192 -44.8960 72° East  Level FlightAware
Wed 02:31:00 AM 48.1623 -44.6845 73° East  Level FlightAware
Wed 02:32:00 AM 48.2049 -44.4727 73° East  Level FlightAware
Wed 02:33:00 AM 48.2471 -44.2605 73° East  Level FlightAware
Wed 02:34:00 AM 48.2890 -44.0479 73° East  Level FlightAware
Wed 02:35:00 AM 48.3305 -43.8350 74° East  Level FlightAware
Wed 02:36:00 AM 48.3715 -43.6218 74° East  Level FlightAware
Wed 02:37:00 AM 48.4122 -43.4082 74° East  Level FlightAware
Wed 02:38:00 AM 48.4525 -43.1943 74° East  Level FlightAware
Wed 02:39:00 AM 48.4924 -42.9800 74° East  Level FlightAware
Wed 02:40:00 AM 48.5318 -42.7654 74° East  Level FlightAware
Wed 02:41:00 AM 48.5700 -42.5556 75° East  Level FlightAware
Wed 02:42:00 AM 48.6078 -42.3454 75° East  Level FlightAware
Wed 02:43:00 AM 48.6452 -42.1349 75° East  Level FlightAware
Wed 02:44:00 AM 48.6822 -41.9241 75° East  Level FlightAware
Wed 02:45:00 AM 48.7188 -41.7131 75° East  Level FlightAware
Wed 02:46:00 AM 48.7551 -41.5017 75° East  Level FlightAware
Wed 02:47:00 AM 48.7909 -41.2900 76° East  Level FlightAware
Wed 02:48:00 AM 48.8264 -41.0780 76° East  Level FlightAware
Wed 02:49:00 AM 48.8615 -40.8657 76° East  Level FlightAware
Wed 02:50:00 AM 48.8962 -40.6531 76° East  Level FlightAware
Wed 02:51:00 AM 48.9305 -40.4402 76° East  Level FlightAware
Wed 02:52:00 AM 48.9644 -40.2270 76° East  Level FlightAware
Wed 02:53:00 AM 48.9979 -40.0135 76° East  Level FlightAware
Wed 02:53:00 AM 49.0000 -40.0000 77° East 537 618 35,000  Level ETMS Enhanced
Wed 02:54:00 AM 49.0287 -39.7990 78° East  Level FlightAware
Wed 02:55:00 AM 49.0590 -39.5841 78° East  Level FlightAware
Wed 02:56:00 AM 49.0889 -39.3690 78° East  Level FlightAware
Wed 02:57:00 AM 49.1184 -39.1536 78° East  Level FlightAware
Wed 02:58:00 AM 49.1474 -38.9380 78° East  Level FlightAware
Wed 02:59:00 AM 49.2742 -37.9904 79° East 537 618 35,000  Level FlightAware
Wed 03:00:00 AM 49.3025 -37.7658 79° East 537 618 35,000  Level FlightAware
Wed 03:01:00 AM 49.3303 -37.5409 79° East 537 618 35,000  Level FlightAware
Wed 03:02:00 AM 49.3578 -37.3157 79° East 537 618 35,000  Level FlightAware
Wed 03:03:00 AM 49.3848 -37.0904 80° East 537 618 35,000  Level FlightAware
Wed 03:04:00 AM 49.4113 -36.8647 80° East 537 618 35,000  Level FlightAware
Wed 03:05:00 AM 49.4374 -36.6388 80° East 537 618 35,000  Level FlightAware
Wed 03:06:00 AM 49.4631 -36.4127 80° East 537 618 35,000  Level FlightAware
Wed 03:07:00 AM 49.4883 -36.1864 80° East 537 618 35,000  Level FlightAware
Wed 03:08:00 AM 49.5131 -35.9598 81° East 537 618 35,000  Level FlightAware
Wed 03:09:00 AM 49.5375 -35.7330 81° East 537 618 35,000  Level FlightAware
Wed 03:10:00 AM 49.5614 -35.5059 81° East 537 618 35,000  Level FlightAware
Wed 03:11:00 AM 49.5848 -35.2787 81° East 537 618 35,000  Level FlightAware
Wed 03:12:00 AM 49.6078 -35.0512 81° East 537 618 35,000  Level FlightAware
Wed 03:13:00 AM 49.6304 -34.8235 81° East 537 618 35,000  Level FlightAware
Wed 03:14:00 AM 49.6525 -34.5956 82° East 537 618 35,000  Level FlightAware
Wed 03:15:00 AM 49.6742 -34.3675 82° East 537 618 35,000  Level FlightAware
Wed 03:16:00 AM 49.6954 -34.1393 82° East 537 618 35,000  Level FlightAware
Wed 03:17:00 AM 49.7162 -33.9108 82° East 537 618 35,000  Level FlightAware
Wed 03:18:00 AM 49.7365 -33.6821 82° East 537 618 35,000  Level FlightAware
Wed 03:19:00 AM 49.7564 -33.4532 82° East 537 618 35,000  Level FlightAware
Wed 03:20:00 AM 49.7758 -33.2241 83° East 537 618 35,000  Level FlightAware
Wed 03:21:00 AM 49.7948 -32.9949 83° East 537 618 35,000  Level FlightAware
Wed 03:22:00 AM 49.8133 -32.7654 83° East 537 618 35,000  Level FlightAware
Wed 03:23:00 AM 49.8314 -32.5359 83° East 537 618 35,000  Level FlightAware
Wed 03:24:00 AM 49.8490 -32.3061 83° East 537 618 35,000  Level FlightAware
Wed 03:25:00 AM 49.8661 -32.0761 83° East 537 618 35,000  Level FlightAware
Wed 03:26:00 AM 49.8828 -31.8461 84° East 537 618 35,000  Level FlightAware
Wed 03:27:00 AM 49.8991 -31.6158 84° East 537 618 35,000  Level FlightAware
Wed 03:28:00 AM 49.9149 -31.3854 84° East 537 618 35,000  Level FlightAware
Wed 03:29:00 AM 49.9302 -31.1549 84° East 537 618 35,000  Level FlightAware
Wed 03:30:00 AM 49.9451 -30.9242 84° East 537 618 35,000  Level FlightAware
Wed 03:31:00 AM 49.9595 -30.6933 85° East 537 618 35,000  Level FlightAware
Wed 03:32:00 AM 49.9735 -30.4623 85° East 537 618 35,000  Level FlightAware
Wed 03:33:00 AM 49.9870 -30.2312 85° East 537 618 35,000  Level FlightAware
Wed 03:34:00 AM 49.9996 -30.0080 85° East  Level FlightAware
Wed 03:35:00 AM 50.0116 -29.7847 85° East  Level FlightAware
Wed 03:36:00 AM 50.0283 -29.7966 78° East  Level FlightAware
Wed 03:37:00 AM 50.0583 -29.5772 78° East  Level FlightAware
Wed 03:38:00 AM 50.0879 -29.3575 78° East  Level FlightAware
Wed 03:39:00 AM 50.1171 -29.1376 78° East  Level FlightAware
Wed 03:39:00 AM 50.0000 -30.0000 77° East 526 605 35,000  Level ETMS Enhanced
Wed 03:40:00 AM 50.1459 -28.9174 78° East  Level FlightAware
Wed 03:41:00 AM 50.1743 -28.6970 79° East  Level FlightAware
Wed 03:42:00 AM 50.2023 -28.4762 79° East  Level FlightAware
Wed 03:43:00 AM 50.2298 -28.2553 79° East  Level FlightAware
Wed 03:44:00 AM 50.2569 -28.0340 79° East  Level FlightAware
Wed 03:45:00 AM 50.3020 -27.7671 79° East 526 605 35,000  Level FlightAware
Wed 03:46:00 AM 50.3298 -27.5423 79° East 526 605 35,000  Level FlightAware
Wed 03:47:00 AM 50.3572 -27.3173 79° East 526 605 35,000  Level FlightAware
Wed 03:48:00 AM 50.3842 -27.0919 79° East 526 605 35,000  Level FlightAware
Wed 03:49:00 AM 50.4107 -26.8664 80° East 526 605 35,000  Level FlightAware
Wed 03:50:00 AM 50.4368 -26.6406 80° East 526 605 35,000  Level FlightAware
Wed 03:51:00 AM 50.4625 -26.4145 80° East 526 605 35,000  Level FlightAware
Wed 03:52:00 AM 50.4877 -26.1882 80° East 526 605 35,000  Level FlightAware
Wed 03:53:00 AM 50.5125 -25.9616 80° East 526 605 35,000  Level FlightAware
Wed 03:54:00 AM 50.5368 -25.7348 81° East 526 605 35,000  Level FlightAware
Wed 03:55:00 AM 50.5607 -25.5078 81° East 526 605 35,000  Level FlightAware
Wed 03:56:00 AM 50.5841 -25.2805 81° East 526 605 35,000  Level FlightAware
Wed 03:57:00 AM 50.6072 -25.0531 81° East 526 605 35,000  Level FlightAware
Wed 03:58:00 AM 50.6297 -24.8254 81° East 526 605 35,000  Level FlightAware
Wed 03:59:00 AM 50.6519 -24.5975 81° East 526 605 35,000  Level FlightAware
Wed 04:00:00 AM 50.6735 -24.3693 82° East 526 605 35,000  Level FlightAware
Wed 04:01:00 AM 50.6948 -24.1410 82° East 526 605 35,000  Level FlightAware
Wed 04:02:00 AM 50.7156 -23.9125 82° East 526 605 35,000  Level FlightAware
Wed 04:03:00 AM 50.7359 -23.6837 82° East 526 605 35,000  Level FlightAware
Wed 04:04:00 AM 50.7558 -23.4548 82° East 526 605 35,000  Level FlightAware
Wed 04:05:00 AM 50.7752 -23.2257 82° East 526 605 35,000  Level FlightAware
Wed 04:06:00 AM 50.7942 -22.9963 83° East 526 605 35,000  Level FlightAware
Wed 04:07:00 AM 50.8128 -22.7668 83° East 526 605 35,000  Level FlightAware
Wed 04:08:00 AM 50.8309 -22.5372 83° East 526 605 35,000  Level FlightAware
Wed 04:09:00 AM 50.8485 -22.3073 83° East 526 605 35,000  Level FlightAware
Wed 04:10:00 AM 50.8657 -22.0773 83° East 526 605 35,000  Level FlightAware
Wed 04:11:00 AM 50.8824 -21.8471 84° East 526 605 35,000  Level FlightAware
Wed 04:12:00 AM 50.8987 -21.6167 84° East 526 605 35,000  Level FlightAware
Wed 04:13:00 AM 50.9146 -21.3862 84° East 526 605 35,000  Level FlightAware
Wed 04:14:00 AM 50.9299 -21.1555 84° East 526 605 35,000  Level FlightAware
Wed 04:15:00 AM 50.9449 -20.9247 84° East 526 605 35,000  Level FlightAware
Wed 04:16:00 AM 50.9593 -20.6937 84° East 526 605 35,000  Level FlightAware
Wed 04:17:00 AM 50.9733 -20.4626 85° East 526 605 35,000  Level FlightAware
Wed 04:18:00 AM 50.9869 -20.2314 85° East 526 605 35,000  Level FlightAware
Wed 04:19:00 AM 50.9998 -20.0034 85° East  Level FlightAware
Wed 04:20:00 AM 51.0122 -19.7753 85° East  Level FlightAware
Wed 04:21:00 AM 51.0251 -19.7815 80° East  Level FlightAware
Wed 04:22:00 AM 51.0505 -19.5560 80° East  Level FlightAware
Wed 04:23:00 AM 51.0755 -19.3303 80° East  Level FlightAware
Wed 04:24:00 AM 51.1000 -19.1043 80° East  Level FlightAware
Wed 04:25:00 AM 51.1241 -18.8781 80° East  Level FlightAware
Wed 04:26:00 AM 51.1478 -18.6516 80° East  Level FlightAware
Wed 04:27:00 AM 51.1711 -18.4249 81° East  Level FlightAware
Wed 04:28:00 AM 51.1939 -18.1980 81° East  Level FlightAware
Wed 04:29:00 AM 51.2163 -17.9709 81° East  Level FlightAware
Wed 04:30:00 AM 51.2382 -17.7435 81° East  Level FlightAware
Wed 04:31:00 AM 51.2597 -17.5159 81° East  Level FlightAware
Wed 04:32:00 AM 51.2807 -17.2882 82° East  Level FlightAware
Wed 04:33:00 AM 51.3013 -17.0602 82° East  Level FlightAware
Wed 04:34:00 AM 51.3215 -16.8320 82° East  Level FlightAware
Wed 04:35:00 AM 51.3412 -16.6036 82° East  Level FlightAware
Wed 04:36:00 AM 51.3604 -16.3750 82° East  Level FlightAware
Wed 04:37:00 AM 51.3793 -16.1462 82° East  Level FlightAware
Wed 04:38:00 AM 51.3977 -15.9173 83° East  Level FlightAware
Wed 04:39:00 AM 51.4156 -15.6881 83° East  Level FlightAware
Wed 04:40:00 AM 51.4331 -15.4588 83° East  Level FlightAware
Wed 04:41:00 AM 51.4501 -15.2293 83° East  Level FlightAware
Wed 04:42:00 AM 51.4667 -14.9997 85° East  Level FlightAware
Wed 04:43:00 AM 51.4795 -14.7697 85° East  Level FlightAware
Wed 04:44:00 AM 51.4954 -14.5402 83° East  Level FlightAware
Wed 04:45:00 AM 51.5125 -14.3108 83° East  Level FlightAware
Wed 04:46:00 AM 51.5290 -14.0812 83° East  Level FlightAware
Wed 04:47:00 AM 51.5451 -13.8515 83° East  Level FlightAware
Wed 04:48:00 AM 51.5608 -13.6216 84° East  Level FlightAware
Wed 04:49:00 AM 51.5749 -13.3913 85° East  Level FlightAware
Wed 04:50:00 AM 51.5879 -13.1608 85° East  Level FlightAware
Wed 04:51:00 AM 51.6004 -12.9302 85° East  Level FlightAware
Wed 04:52:00 AM 51.6125 -12.6995 85° East  Level FlightAware
Wed 04:53:00 AM 51.6241 -12.4686 85° East  Level FlightAware
Wed 04:54:00 AM 51.6353 -12.2377 85° East  Level FlightAware
Wed 04:55:00 AM 51.6460 -12.0066 86° East  Level FlightAware
Wed 04:56:00 AM 51.6563 -11.7754 86° East  Level FlightAware
Wed 04:56:22 AM 51.3870 -11.2660 86° East 589 678 35,000  Level FlightAware
Wed 04:57:00 AM 51.6661 -11.5441 86° East  Level FlightAware
Wed 04:57:01 AM 51.4040 -11.1140 80° East 591 680 35,000  Level FlightAware
Wed 04:58:17 AM 51.4380 -10.7780 81° East 595 685 35,000  Level FlightAware
Wed 04:58:59 AM 51.4560 -10.6010 81° East 597 687 35,000  Level FlightAware
Wed 04:59:39 AM 51.4750 -10.4140 81° East 599 689 35,000  Level FlightAware
Wed 05:00:14 AM 51.4900 -10.2620 81° East 600 690 35,000  Level FlightAware
Wed 05:01:06 AM 51.5130 -10.0290 81° East 603 694 35,000  Level FlightAware
Wed 05:01:44 AM 51.5290 -9.8660 81° East 603 694 35,000  Level FlightAware
Wed 05:02:21 AM 51.5450 -9.6950 81° East 602 693 35,000  Level FlightAware
Wed 05:03:08 AM 51.5640 -9.4890 81° East 603 694 35,000  Level FlightAware
Wed 05:03:46 AM 51.5790 -9.3210 82° East 605 696 35,000  Level FlightAware
Wed 05:04:32 AM 51.5970 -9.1170 82° East 604 695 35,000  Level FlightAware
Wed 05:05:10 AM 51.6110 -8.9470 82° East 604 695 35,000  Level FlightAware
Wed 05:05:14 AM 51.6073 -8.9525 82° East 490 564 35,000  Level FlightAware
Wed 05:05:44 AM 51.6185 -8.8192 82° East 490 564 35,000  Level FlightAware
Wed 05:05:56 AM 51.6280 -8.7460 82° East 604 695 35,000  Level FlightAware
Wed 05:06:14 AM 51.6296 -8.6861 82° East 490 564 35,000  Level FlightAware
Wed 05:06:36 AM 51.6430 -8.5690 82° East 602 693 35,000  Level FlightAware
Wed 05:07:14 AM 51.6511 -8.4195 82° East 488 562 35,000  Level FlightAware
Wed 05:07:19 AM 51.6570 -8.3860 82° East 599 689 35,000  Level FlightAware
Wed 05:07:44 AM 51.6614 -8.2865 82° East 486 559 35,000  Level FlightAware
Wed 05:08:04 AM 51.6740 -8.1770 82° East 598 688 35,000  Level FlightAware
Wed 05:08:37 AM 51.6840 -8.0370 82° East 596 686 35,000  Level FlightAware
Wed 05:08:44 AM 51.6829 -8.0208 82° East 484 557 35,000  Level FlightAware
Wed 05:09:14 AM 51.6931 -7.8887 82° East 484 557 35,000  Level FlightAware
Wed 05:09:22 AM 51.6990 -7.8420 82° East 594 684 35,000  Level FlightAware
Wed 05:09:44 AM 51.7027 -7.7568 82° East 482 555 35,000  Level FlightAware
Wed 05:10:10 AM 51.7160 -7.6170 82° East 593 682 35,000  Level FlightAware
Wed 05:10:44 AM 51.7217 -7.4939 82° East 482 555 35,000  Level FlightAware
Wed 05:10:52 AM 51.7290 -7.4320 82° East 593 682 35,000  Level FlightAware
Wed 05:11:14 AM 51.7306 -7.3623 82° East 484 557 35,000  Level FlightAware
Wed 05:11:34 AM 51.7410 -7.2510 82° East 593 682 35,000  Level FlightAware
Wed 05:12:14 AM 51.7473 -7.0991 82° East 482 555 35,000  Level FlightAware
Wed 05:12:14 AM 51.7530 -7.0780 82° East 592 681 35,000  Level FlightAware
Wed 05:12:45 AM 51.7564 -6.9667 82° East 484 557 35,000  Level FlightAware
Wed 05:12:58 AM 51.7660 -6.8850 82° East 593 682 35,000  Level FlightAware
Wed 05:13:15 AM 51.7653 -6.8351 82° East 484 557 35,000  Level FlightAware
Wed 05:13:40 AM 51.7780 -6.6970 82° East 592 681 35,000  Level FlightAware
Wed 05:14:15 AM 51.7801 -6.5719 82° East 482 555 35,000  Level FlightAware
Wed 05:14:20 AM 51.7850 -6.5220 82° East 586 674 35,000  Level FlightAware
Wed 05:14:45 AM 51.7780 -6.4415 82° East 482 555 35,000  Level FlightAware
Wed 05:15:02 AM 51.7810 -6.3400 82° East 581 669 35,000  Level FlightAware
Wed 05:15:21 AM 51.7721 -6.2854 82° East 482 555 35,000  Level FlightAware
Wed 05:15:46 AM 51.7740 -6.1480 82° East 580 667 35,000  Level FlightAware
Wed 05:16:21 AM 51.7624 -6.0261 82° East 480 552 35,000  Level FlightAware
Wed 05:16:26 AM 51.7670 -5.9790 82° East 580 667 35,000  Level FlightAware
Wed 05:16:51 AM 51.7576 -5.8960 82° East 480 552 35,000  Level FlightAware
Wed 05:17:08 AM 51.7610 -5.8160 82° East 580 667 35,000  Level FlightAware
Wed 05:17:50 AM 51.7530 -5.6170 82° East 581 669 35,000  Level FlightAware
Wed 05:17:51 AM 51.7470 -5.6375 82° East 482 555 35,000  Level FlightAware
Wed 05:18:21 AM 51.7416 -5.5080 82° East 482 555 35,000  Level FlightAware
Wed 05:18:30 AM 51.7460 -5.4430 82° East 580 667 35,000  Level FlightAware
Wed 05:18:51 AM 51.7362 -5.3786 82° East 482 555 35,000  Level FlightAware
Wed 05:19:16 AM 51.7370 -5.2450 82° East 580 667 35,000  Level FlightAware
Wed 05:19:39 AM 51.7269 -5.1716 82° East 482 555 35,000  Level FlightAware
Wed 05:19:56 AM 51.7290 -5.0690 82° East 580 667 35,000  Level FlightAware
Wed 05:20:40 AM 51.7210 -4.8850 94° East 581 669 35,000  Level FlightAware
Wed 05:21:09 AM 51.7094 -4.7827 94° East 482 555 35,000  Level FlightAware
Wed 05:21:22 AM 51.7130 -4.7040 94° East 580 667 35,000  Level FlightAware
Wed 05:21:39 AM 51.7032 -4.6535 94° East 482 555 35,000  Level FlightAware
Wed 05:22:02 AM 51.7040 -4.5330 94° East 580 667 35,000  Level FlightAware
Wed 05:22:46 AM 51.6950 -4.3470 94° East 579 666 35,000  Level FlightAware
Wed 05:23:26 AM 51.6850 -4.1670 94° East 579 666 35,000  Level FlightAware
Wed 05:23:27 AM 51.6791 -4.1883 94° East 482 555 35,000  Level FlightAware
Wed 05:23:57 AM 51.6719 -4.0596 94° East 482 555 35,000  Level FlightAware
Wed 05:24:08 AM 51.6750 -3.9880 94° East 579 666 35,000  Level FlightAware
Wed 05:24:33 AM 51.6631 -3.9045 94° East 482 555 35,000  Level FlightAware
Wed 05:24:50 AM 51.6650 -3.8050 94° East 578 665 35,000  Level FlightAware
Wed 05:25:21 AM 51.6512 -3.7000 94° East 484 557 35,000  Level FlightAware
Wed 05:25:32 AM 51.6550 -3.6300 94° East 578 665 35,000  Level FlightAware
Wed 05:26:12 AM 51.6440 -3.4580 94° East 577 664 35,000  Level FlightAware
Wed 05:26:15 AM 51.6372 -3.4683 94° East 486 559 35,000  Level FlightAware
Wed 05:26:58 AM 51.6320 -3.2610 96° East 575 662 35,000  Level FlightAware
Wed 05:27:05 AM 51.6300 -3.2319 96° East 576 663 35,000  Level FlightAware
Wed 05:27:27 AM 51.6180 -3.1618 96° East 484 557 35,000  Level FlightAware
Wed 05:27:35 AM 51.6217 -3.1034 96° East 575 662 35,000  Level FlightAware
Wed 05:27:58 AM 51.6094 -3.0338 96° East 484 557 35,000  Level FlightAware
Wed 05:28:07 AM 51.6125 -2.9657 96° East 573 659 35,000  Level FlightAware
Wed 05:28:28 AM 51.6007 -2.9061 96° East 482 555 35,000  Level FlightAware
Wed 05:28:41 AM 51.6031 -2.8246 96° East 572 658 35,000  Level FlightAware
Wed 05:28:58 AM 51.5922 -2.7796 96° East 482 555 35,000  Level FlightAware
Wed 05:29:11 AM 51.5943 -2.6964 96° East 570 656 35,000  Level FlightAware
Wed 05:29:28 AM 51.5837 -2.6533 96° East 480 552 35,000  Level FlightAware
Wed 05:29:41 AM 51.5853 -2.5692 96° East 571 657 35,000  Level FlightAware
Wed 05:30:04 AM 51.5729 -2.5014 96° East 480 552 35,000  Level FlightAware
Wed 05:30:12 AM 51.5763 -2.4411 96° East 572 658 35,000  Level FlightAware
Wed 05:30:43 AM 51.5670 -2.3103 96° East 573 659 35,000  Level FlightAware
Wed 05:31:13 AM 51.5577 -2.1818 97° East 573 659 35,000  Level FlightAware
Wed 05:31:44 AM 51.5483 -2.0540 97° East 573 659 35,000  Level FlightAware
Wed 05:32:15 AM 51.5385 -1.9205 97° East 572 658 35,000  Level FlightAware
Wed 05:32:34 AM 51.5270 -1.8677 97° East 482 555 35,000  Level FlightAware
Wed 05:32:48 AM 51.5282 -1.7825 97° East 571 657 35,000  Level FlightAware
Wed 05:33:05 AM 51.5174 -1.7409 97° East 480 552 35,000  Level FlightAware
Wed 05:33:19 AM 51.5183 -1.6537 97° East 570 656 35,000  Level FlightAware
Wed 05:33:49 AM 51.5085 -1.5273 97° East 569 655 35,000  Level FlightAware
Wed 05:34:20 AM 51.4986 -1.3992 97° East 570 656 35,000  Level FlightAware
Wed 05:34:50 AM 51.4884 -1.2735 97° East 570 656 35,000  Level FlightAware
Wed 05:35:24 AM 51.4770 -1.1323 97° East 569 655 35,000  Level FlightAware
Wed 05:35:54 AM 51.4664 -1.0043 98° East 568 654 35,000  Level FlightAware
Wed 05:36:25 AM 51.4556 -0.8762 98° East 566 651 35,000  Level FlightAware
Wed 05:36:58 AM 51.4439 -0.7391 98° East 565 650 35,000  Level FlightAware
Wed 05:37:29 AM 51.4327 -0.6113 98° East 567 652 35,000  Level FlightAware
Wed 05:38:00 AM 51.4218 -0.4846 98° East 566 651 35,000  Level FlightAware
Wed 05:38:30 AM 51.4078 -0.3593 100° East 565 650 35,000  Level FlightAware
Wed 05:39:01 AM 51.3917 -0.2345 102° East 565 650 35,000  Level FlightAware
Wed 05:39:32 AM 51.3758 -0.1048 101° East 563 648 35,000  Level FlightAware
Wed 05:39:44 AM 51.3703 -0.0565 100° East 563 648 35,000  Level FlightAware
Wed 05:40:03 AM 51.3618 0.0220 100° East 563 648 35,000  Level FlightAware
Wed 05:40:34 AM 51.3487 0.1492 99° East 563 648 35,000  Level FlightAware
Wed 05:41:05 AM 51.3361 0.2747 99° East 563 648 35,000  Level FlightAware
Wed 05:41:41 AM 51.3216 0.4219 99° East 563 648 35,000  Level FlightAware
Wed 05:42:02 AM 51.3131 0.5076 99° East 563 648 35,000  Level FlightAware
Wed 05:42:12 AM 51.3089 0.5486 99° East 562 647 35,000  Level FlightAware
Wed 05:42:43 AM 51.2963 0.6757 99° East 562 647 35,000  Level FlightAware
Wed 05:43:06 AM 51.2829 0.7435 99° East 480 552 35,000  Level FlightAware
Wed 05:43:14 AM 51.2834 0.8050 99° East 562 647 35,000  Level FlightAware
Wed 05:43:45 AM 51.2709 0.9303 99° East 562 647 35,000  Level FlightAware
Wed 05:44:18 AM 51.2577 1.0653 99° East 562 647 35,000  Level FlightAware
Wed 05:44:55 AM 51.2457 1.1875 99° East 480 552 35,000  Level FlightAware
Wed 05:45:07 AM 51.2460 1.2620 99° East 560 644 35,000  Level FlightAware
Wed 05:45:25 AM 51.2379 1.3108 99° East 480 552 35,000  Level FlightAware
Wed 05:45:49 AM 51.2228 1.4068 104° East 480 552 35,000  Level FlightAware
Wed 05:46:05 AM 51.2110 1.4920 104° East 556 640 35,000  Level FlightAware
Wed 05:46:25 AM 51.1852 1.5424 104° East 480 552 35,000  Level FlightAware
Wed 05:46:46 AM 51.1670 1.6480 104° East 554 638 35,000  Level FlightAware
Wed 05:47:25 AM 51.1234 1.7664 104° East 480 552 35,000  Level FlightAware
Wed 05:47:30 AM 51.1230 1.8090 104° East 554 638 35,000  Level FlightAware
Wed 05:47:55 AM 51.0940 1.8793 104° East 480 552 35,000  Level FlightAware
Wed 05:48:09 AM 51.0840 1.9600 104° East 555 639 35,000  Level FlightAware
Wed 05:48:43 AM 51.0489 2.0870 114° Southeast 555 639 35,000  Level FlightAware
Wed 05:49:13 AM 51.0120 2.1696 114° Southeast 480 552 35,000  Level FlightAware
Wed 05:49:31 AM 50.9970 2.2590 114° Southeast 555 639 35,000  Level FlightAware
Wed 05:49:49 AM 50.9718 2.3024 114° Southeast 482 555 35,000  Level FlightAware
Wed 05:50:17 AM 50.9450 2.4310 114° Southeast 554 638 35,000  Level FlightAware
Wed 05:50:37 AM 50.9214 2.5082 116° Southeast 554 638 35,000  Level FlightAware
Wed 05:50:55 AM 50.8994 2.5445 116° Southeast 480 552 35,000  Level FlightAware
Wed 05:51:25 AM 50.8696 2.6826 116° Southeast 554 638 35,000  Level FlightAware
Wed 05:51:56 AM 50.8360 2.7951 115° Southeast 554 638 35,000  Level FlightAware
Wed 05:52:35 AM 50.7925 2.9396 115° Southeast 553 636 35,000  Level FlightAware
Wed 05:53:08 AM 50.7574 3.0566 115° Southeast 552 635 35,000  Level FlightAware
Wed 05:53:38 AM 50.7242 3.1656 116° Southeast 550 633 35,000  Level FlightAware
Wed 05:54:13 AM 50.6829 3.2665 116° Southeast 484 557 35,000  Level FlightAware
Wed 05:54:21 AM 50.6766 3.3221 116° Southeast 550 633 35,000  Level FlightAware
Wed 05:54:49 AM 50.6433 3.3960 116° Southeast 484 557 35,000  Level FlightAware
Wed 05:54:59 AM 50.6350 3.4575 116° Southeast 548 631 35,000  Level FlightAware
Wed 05:55:38 AM 50.5921 3.5957 116° Southeast 545 627 35,000  Level FlightAware
Wed 05:56:09 AM 50.5573 3.7075 116° Southeast 544 626 35,000  Level FlightAware
Wed 05:56:43 AM 50.5200 3.8260 116° Southeast 542 624 35,000  Level FlightAware
Wed 05:56:54 AM 50.5074 3.8670 116° Southeast 543 625 35,000  Level FlightAware
Wed 05:57:27 AM 50.4720 3.9790 116° Southeast 542 624 35,000  Level FlightAware
Wed 05:58:06 AM 50.4280 4.1180 116° Southeast 541 623 35,000  Level FlightAware
Wed 05:58:50 AM 50.3766 4.2440 116° Southeast 1 1 35,000  Level FlightAware
Wed 05:58:53 AM 50.3760 4.2830 116° Southeast 541 623 35,000  Level FlightAware
Wed 05:59:26 AM 50.3363 4.3701 116° Southeast 1 1 35,000  Level FlightAware
Wed 05:59:33 AM 50.3320 4.4210 116° Southeast 542 624 35,000  Level FlightAware
Wed 05:59:53 AM 50.3082 4.4944 117° Southeast 542 624 35,000  Level FlightAware
Wed 06:00:14 AM 50.2812 4.5354 117° Southeast 1 1 35,000  Level FlightAware
Wed 06:00:32 AM 50.2642 4.6315 117° Southeast 542 624 35,000  Level FlightAware
Wed 06:01:05 AM 50.2273 4.7457 117° Southeast 542 624 35,000  Level FlightAware
Wed 06:01:37 AM 50.1913 4.8567 117° Southeast 542 624 35,000  Level FlightAware
Wed 06:02:10 AM 50.1531 4.9738 117° Southeast 541 623 35,000  Level FlightAware
Wed 06:02:42 AM 50.1170 5.0844 117° Southeast 540 621 35,000  Level FlightAware
Wed 06:03:22 AM 50.0724 5.2202 117° Southeast 540 621 35,000  Level FlightAware
Wed 06:04:29 AM 49.9970 5.4500 117° Southeast 536 617 35,000  Level FlightAware
Wed 06:05:05 AM 49.9550 5.5750 118° Southeast 534 615 35,000  Level FlightAware
Wed 06:05:50 AM 49.9060 5.7200 118° Southeast 533 613 35,000  Level FlightAware
Wed 06:06:34 AM 49.8550 5.8710 118° Southeast 530 610 35,000  Level FlightAware
Wed 06:07:13 AM 49.8130 5.9960 117° Southeast 530 610 35,000  Level FlightAware
Wed 06:07:58 AM 49.7600 6.1510 118° Southeast 529 609 35,000  Level FlightAware
Wed 06:08:38 AM 49.7160 6.2800 118° Southeast 528 608 35,000  Level FlightAware
Wed 06:09:18 AM 49.6700 6.4140 118° Southeast 529 609 35,000  Level FlightAware
Wed 06:09:59 AM 49.6230 6.5480 118° Southeast 530 610 35,000  Level FlightAware
Wed 06:10:45 AM 49.5700 6.7000 118° Southeast 526 605 35,000  Level FlightAware
Wed 06:11:40 AM 49.5040 6.8860 119° Southeast 527 606 35,000  Level FlightAware
Wed 06:12:25 AM 49.4500 7.0380 119° Southeast 527 606 35,000  Level FlightAware
Wed 06:13:05 AM 49.4050 7.1660 118° Southeast 526 605 35,000  Level FlightAware
Wed 06:13:40 AM 49.3660 7.2760 119° Southeast 529 609 35,000  Level FlightAware
Wed 06:14:30 AM 49.3050 7.4440 119° Southeast 528 608 35,000  Level FlightAware
Wed 06:15:37 AM 49.2290 7.6550 119° Southeast 526 605 35,000  Level FlightAware
Wed 06:16:20 AM 49.1740 7.8050 119° Southeast 527 606 35,000  Level FlightAware
Wed 06:17:00 AM 49.1230 7.9320 121° Southeast 523 602 35,000  Level FlightAware
Wed 06:17:45 AM 49.0530 8.0620 129° Southeast 528 608 35,000  Level FlightAware
Wed 06:18:25 AM 48.9910 8.1790 129° Southeast 522 601 35,000  Level FlightAware
Wed 06:19:08 AM 48.9260 8.3030 129° Southeast 527 606 35,000  Level FlightAware
Wed 06:19:50 AM 48.8610 8.4190 130° Southeast 527 606 35,000  Level FlightAware
Wed 06:20:17 AM 48.8300 8.4740 131° Southeast 525 604 35,000  Level FlightAware
Wed 06:21:26 AM 48.7080 8.6920 130° Southeast 521 600 35,000  Level FlightAware
Wed 06:22:12 AM 48.6380 8.8170 130° Southeast 520 598 35,000  Level FlightAware
Wed 06:22:50 AM 48.5780 8.9250 130° Southeast 519 597 35,000  Level FlightAware
Wed 06:23:36 AM 48.5070 9.0500 131° Southeast 519 597 35,000  Level FlightAware
Wed 06:24:17 AM 48.4410 9.1650 131° Southeast 523 602 35,000  Level FlightAware
Wed 06:24:57 AM 48.3780 9.2760 130° Southeast 519 597 35,000  Level FlightAware
Wed 06:25:37 AM 48.3140 9.3850 131° Southeast 521 600 35,000  Level FlightAware
Wed 06:26:22 AM 48.2450 9.4960 133° Southeast 524 603 35,000  Level FlightAware
Wed 06:27:02 AM 48.1630 9.5950 141° Southeast 534 615 35,000  Level FlightAware
Wed 06:27:47 AM 48.0700 9.6920 145° Southeast 530 610 35,000  Level FlightAware
Wed 06:28:22 AM 48.0140 9.7520 144° Southeast 538 619 35,000  Level FlightAware
Wed 06:29:08 AM 47.9050 9.8680 144° Southeast 539 620 35,000  Level FlightAware
Wed 06:29:53 AM 47.8120 9.9670 144° Southeast 538 619 35,000  Level FlightAware
Wed 06:30:29 AM 47.7410 10.0410 145° Southeast 539 620 35,000  Level FlightAware
Wed 06:31:14 AM 47.6490 10.1340 146° Southeast 539 620 35,000  Level FlightAware
Wed 06:31:53 AM 47.5690 10.2150 146° Southeast 539 620 35,000  Level FlightAware
Wed 06:32:38 AM 47.4760 10.3100 145° Southeast 542 624 35,000  Level FlightAware
Wed 06:33:25 AM 47.3800 10.4080 145° Southeast 543 625 35,000  Level FlightAware
Wed 06:34:03 AM 47.3030 10.4850 146° Southeast 543 625 35,000  Level FlightAware
Wed 06:34:46 AM 47.2120 10.5760 146° Southeast 544 626 35,000  Level FlightAware
Wed 06:35:29 AM 47.1210 10.6670 146° Southeast 545 627 35,000  Level FlightAware
Wed 06:36:27 AM 46.9970 10.7790 148° Southeast 547 629 35,000  Level FlightAware
Wed 06:36:59 AM 46.9280 10.8380 150° Southeast 547 629 35,000  Level FlightAware
Wed 06:37:48 AM 46.8220 10.9290 150° Southeast 542 624 35,000  Level FlightAware
Wed 06:38:30 AM 46.7280 11.0090 150° Southeast 547 629 35,000  Level FlightAware
Wed 06:39:12 AM 46.6380 11.0840 150° Southeast 542 624 35,000  Level FlightAware
Wed 06:39:53 AM 46.5460 11.1610 150° Southeast 543 625 35,000  Level FlightAware
Wed 06:40:32 AM 46.4610 11.2320 150° Southeast 544 626 35,000 71 Level FlightAware
Wed 06:41:17 AM 46.3610 11.3150 150° Southeast 543 625 35,100 282 Climbing FlightAware
Wed 06:41:57 AM 46.2720 11.3890 150° Southeast 542 624 35,400 444 Climbing FlightAware
Wed 06:42:38 AM 46.1870 11.4590 150° Southeast 539 620 35,700 494 Climbing FlightAware
Wed 06:43:22 AM 46.0900 11.5390 150° Southeast 538 619 36,100 500 Climbing FlightAware
Wed 06:44:02 AM 46.0030 11.6110 150° Southeast 525 604 36,400 488 Climbing FlightAware
Wed 06:44:48 AM 45.9050 11.6910 150° Southeast 519 597 36,800 409 Climbing FlightAware
Wed 06:45:30 AM 45.8340 11.7500 150° Southeast 522 601 37,000 140 Climbing FlightAware
Wed 06:46:14 AM 45.7310 11.8330 151° Southeast 539 620 37,000  Level FlightAware
Wed 06:46:48 AM 45.6550 11.8950 150° Southeast 540 621 37,000  Level FlightAware
Wed 06:47:37 AM 45.5580 11.9910 145° Southeast 528 608 37,000  Level FlightAware
Wed 06:48:14 AM 45.5190 12.0830 121° Southeast 504 580 37,000  Level FlightAware
Wed 06:48:55 AM 45.4950 12.2170 104° East 496 571 37,000  Level FlightAware
Wed 06:49:39 AM 45.4710 12.3660 103° East 498 573 37,000  Level FlightAware
Wed 06:50:32 AM 45.4400 12.5540 103° East 502 578 37,000  Level FlightAware
Wed 06:51:12 AM 45.4180 12.6820 104° East 501 577 37,000  Level FlightAware
Wed 06:51:57 AM 45.3940 12.8250 103° East 498 573 37,000  Level FlightAware
Wed 06:52:37 AM 45.3720 12.9480 104° East 499 574 37,000  Level FlightAware
Wed 06:53:23 AM 45.3450 13.0990 104° East 498 573 37,000  Level FlightAware
Wed 06:54:02 AM 45.3150 13.2190 110° East 508 585 37,000  Level FlightAware
Wed 06:54:48 AM 45.2530 13.3460 125° Southeast 516 594 37,000  Level FlightAware
Wed 06:55:37 AM 45.1890 13.4820 124° Southeast 513 590 37,000  Level FlightAware
Wed 06:56:23 AM 45.1260 13.6070 126° Southeast 504 580 37,000  Level FlightAware
Wed 06:57:03 AM 45.0690 13.7180 126° Southeast 503 579 37,000  Level FlightAware
Wed 06:57:48 AM 45.0080 13.8370 126° Southeast 504 580 37,000  Level FlightAware
Wed 06:58:29 AM 44.9590 13.9320 126° Southeast 510 587 37,000  Level FlightAware
Wed 06:59:11 AM 44.8930 14.0600 126° Southeast 506 582 37,000  Level FlightAware
Wed 06:59:56 AM 44.8280 14.1870 126° Southeast 507 583 37,000  Level FlightAware
Wed 07:00:51 AM 44.7570 14.3250 126° Southeast 508 585 37,000  Level FlightAware
Wed 07:02:00 AM 44.6610 14.5090 126° Southeast 516 594 37,000  Level FlightAware
Wed 07:02:54 AM 44.5870 14.6520 126° Southeast 516 594 37,000  Level FlightAware
Wed 07:03:31 AM 44.5270 14.7650 127° Southeast 515 593 37,000  Level FlightAware
Wed 07:04:43 AM 44.4300 14.9500 126° Southeast 513 590 37,000  Level FlightAware
Wed 07:05:30 AM 44.3700 15.0640 126° Southeast 513 590 37,000  Level FlightAware
Wed 07:06:06 AM 44.3080 15.1780 127° Southeast 514 592 37,000  Level FlightAware
Wed 07:06:56 AM 44.2380 15.3100 126° Southeast 513 590 37,000  Level FlightAware
Wed 07:07:31 AM 44.1870 15.4050 127° Southeast 513 590 37,000  Level FlightAware
Wed 07:08:18 AM 44.1230 15.5230 127° Southeast 510 587 37,000  Level FlightAware
Wed 07:09:01 AM 44.0600 15.6400 127° Southeast 509 586 37,000  Level FlightAware
Wed 07:09:41 AM 44.0020 15.7460 127° Southeast 508 585 37,000 124 Level FlightAware
Wed 07:10:38 AM 43.9220 15.8930 127° Southeast 502 578 37,200 309 Climbing FlightAware
Wed 07:11:18 AM 43.8660 15.9960 127° Southeast 505 581 37,500 424 Climbing FlightAware
Wed 07:12:03 AM 43.8150 16.0880 128° Southeast 509 586 37,800 349 Climbing FlightAware
Wed 07:12:44 AM 43.7530 16.2280 121° Southeast 505 581 38,000 141 Climbing FlightAware
Wed 07:13:28 AM 43.7020 16.3520 120° Southeast 503 579 38,000  Level FlightAware
Wed 07:14:02 AM 43.6640 16.4460 119° Southeast 501 577 38,000  Level FlightAware
Wed 07:14:52 AM 43.6060 16.5860 120° Southeast 497 572 38,000  Level FlightAware
Wed 07:15:30 AM 43.5640 16.6910 119° Southeast 496 571 38,000  Level FlightAware
Wed 07:16:16 AM 43.5140 16.8140 119° Southeast 495 570 38,000  Level FlightAware
Wed 07:16:56 AM 43.4670 16.9200 121° Southeast 496 571 38,000  Level FlightAware
Wed 07:17:36 AM 43.4050 17.0190 131° Southeast 493 567 38,000  Level FlightAware
Wed 07:18:21 AM 43.3330 17.1210 134° Southeast 495 570 38,000  Level FlightAware
Wed 07:19:01 AM 43.2690 17.2120 134° Southeast 495 570 38,000 -225 Level FlightAware
Wed 07:19:41 AM 43.2070 17.3000 134° Southeast 498 573 37,700 -422 Descending FlightAware
Wed 07:21:09 AM 43.0840 17.4740 134° Southeast 489 563 37,100 -336 Descending FlightAware
Wed 07:21:46 AM 43.0070 17.5820 134° Southeast 484 557 37,000 -72 Descending FlightAware
Wed 07:22:32 AM 42.9350 17.6830 134° Southeast 485 558 37,000  Level FlightAware
Wed 07:23:16 AM 42.8630 17.7830 134° Southeast 487 560 37,000  Level FlightAware
Wed 07:23:54 AM 42.8030 17.8670 134° Southeast 487 560 37,000  Level FlightAware
Wed 07:24:36 AM 42.7380 17.9580 134° Southeast 490 564 37,000  Level FlightAware
Wed 07:25:17 AM 42.6780 18.0430 134° Southeast 491 565 37,000  Level FlightAware
Wed 07:26:03 AM 42.6000 18.1510 134° Southeast 490 564 37,000  Level FlightAware
Wed 07:26:46 AM 42.5320 18.2460 134° Southeast 488 562 37,000  Level FlightAware
Wed 07:27:22 AM 42.4750 18.3250 134° Southeast 487 560 37,000  Level FlightAware
Wed 07:28:08 AM 42.4010 18.4270 134° Southeast 487 560 37,000  Level FlightAware
Wed 07:28:48 AM 42.3470 18.5000 135° Southeast 488 562 37,000  Level FlightAware
Wed 07:29:34 AM 42.2660 18.6120 134° Southeast 488 562 37,000  Level FlightAware
Wed 07:30:14 AM 42.2020 18.7000 134° Southeast 488 562 37,000  Level FlightAware
Wed 07:30:56 AM 42.1360 18.7900 135° Southeast 488 562 37,000  Level FlightAware
Wed 07:31:40 AM 42.0650 18.8860 135° Southeast 487 560 37,000  Level FlightAware
Wed 07:32:16 AM 42.0110 18.9610 134° Southeast 488 562 37,000  Level FlightAware
Wed 07:33:04 AM 41.9330 19.0670 135° Southeast 489 563 37,000  Level FlightAware
Wed 07:33:38 AM 41.8800 19.1390 135° Southeast 490 564 37,000  Level FlightAware
Wed 07:34:26 AM 41.8020 19.2450 135° Southeast 490 564 37,000  Level FlightAware
Wed 07:35:10 AM 41.7340 19.3370 135° Southeast 492 566 37,000  Level FlightAware
Wed 07:35:50 AM 41.6670 19.4250 136° Southeast 492 566 37,000  Level FlightAware
Wed 07:36:32 AM 41.5990 19.5160 135° Southeast 492 566 37,000  Level FlightAware
Wed 07:37:16 AM 41.5280 19.6100 135° Southeast 492 566 37,000  Level FlightAware
Wed 07:37:56 AM 41.4640 19.6950 135° Southeast 492 566 37,000  Level FlightAware
Wed 07:38:36 AM 41.3990 19.7800 136° Southeast 493 567 37,000  Level FlightAware
Wed 07:39:22 AM 41.3240 19.8790 135° Southeast 493 567 37,000  Level FlightAware
Wed 07:40:03 AM 41.2580 19.9660 135° Southeast 494 568 37,000  Level FlightAware
Wed 07:40:46 AM 41.1870 20.0590 135° Southeast 493 567 37,000  Level FlightAware
Wed 07:41:26 AM 41.1220 20.1430 136° Southeast 492 566 37,000  Level FlightAware
Wed 07:42:06 AM 41.0570 20.2290 135° Southeast 491 565 37,000  Level FlightAware
Wed 07:42:52 AM 40.9820 20.3260 136° Southeast 490 564 37,000  Level FlightAware
Wed 07:43:34 AM 40.9280 20.3950 136° Southeast 490 564 37,000  Level FlightAware
Wed 07:44:29 AM 40.8420 20.5050 136° Southeast 489 563 37,000  Level FlightAware
Wed 07:45:19 AM 40.7610 20.6100 136° Southeast 489 563 37,000  Level FlightAware
Wed 07:46:08 AM 40.6640 20.7330 136° Southeast 490 564 37,000  Level FlightAware
Wed 07:46:46 AM 40.6080 20.8050 136° Southeast 490 564 37,000  Level FlightAware
Wed 07:47:31 AM 40.5300 20.9040 136° Southeast 491 565 37,000  Level FlightAware
Wed 07:48:11 AM 40.4720 20.9790 135° Southeast 492 566 37,000  Level FlightAware
Wed 07:48:56 AM 40.3880 21.0750 139° Southeast 487 560 37,000  Level FlightAware
Wed 07:49:36 AM 40.3190 21.1530 139° Southeast 495 570 37,000  Level FlightAware
Wed 07:50:59 AM 40.2050 21.2820 139° Southeast 498 573 37,000  Level FlightAware
Wed 07:51:36 AM 40.1100 21.3910 139° Southeast 493 567 37,000  Level FlightAware
Wed 07:52:21 AM 40.0310 21.4820 139° Southeast 494 568 37,000  Level FlightAware
Wed 07:53:06 AM 39.9540 21.5700 139° Southeast 493 567 37,000  Level FlightAware
Wed 07:53:46 AM 39.8830 21.6500 139° Southeast 493 567 37,000  Level FlightAware
Wed 07:54:31 AM 39.8050 21.7390 139° Southeast 495 570 37,000  Level FlightAware
Wed 07:55:11 AM 39.7370 21.8160 139° Southeast 496 571 37,000  Level FlightAware
Wed 07:55:54 AM 39.6650 21.8960 139° Southeast 497 572 37,000  Level FlightAware
Wed 07:56:36 AM 39.5860 21.9850 139° Southeast 498 573 37,000  Level FlightAware
Wed 07:57:16 AM 39.5150 22.0650 139° Southeast 498 573 37,000  Level FlightAware
Wed 07:58:01 AM 39.4360 22.1520 140° Southeast 496 571 37,000  Level FlightAware
Wed 07:58:41 AM 39.3650 22.2310 139° Southeast 498 573 37,000  Level FlightAware
Wed 07:59:21 AM 39.2950 22.3090 139° Southeast 498 573 37,000  Level FlightAware
Wed 08:00:06 AM 39.2150 22.3970 140° Southeast 504 580 37,000  Level FlightAware
Wed 08:00:49 AM 39.1400 22.4790 140° Southeast 502 578 37,000  Level FlightAware
Wed 08:01:30 AM 39.0640 22.5620 140° Southeast 503 579 37,000  Level FlightAware
Wed 08:02:10 AM 38.9920 22.6400 140° Southeast 504 580 37,000  Level FlightAware
Wed 08:02:56 AM 38.9100 22.7300 139° Southeast 505 581 37,000  Level FlightAware
Wed 08:03:38 AM 38.8340 22.8120 140° Southeast 505 581 37,000  Level FlightAware
Wed 08:04:16 AM 38.7680 22.8830 140° Southeast 506 582 37,000  Level FlightAware
Wed 08:05:00 AM 38.6880 22.9690 140° Southeast 507 583 37,000  Level FlightAware
Wed 08:05:44 AM 38.6080 23.0550 140° Southeast 508 585 37,000  Level FlightAware
Wed 08:06:19 AM 38.5590 23.1080 140° Southeast 508 585 37,000  Level FlightAware
Wed 08:07:06 AM 38.4590 23.2140 140° Southeast 509 586 37,000  Level FlightAware
Wed 08:07:48 AM 38.3840 23.2940 140° Southeast 511 588 37,000  Level FlightAware
Wed 08:08:28 AM 38.3110 23.3730 140° Southeast 512 589 37,000  Level FlightAware
Wed 08:09:10 AM 38.2360 23.4520 140° Southeast 510 587 37,000  Level FlightAware
Wed 08:09:54 AM 38.1550 23.5370 140° Southeast 510 587 37,000  Level FlightAware
Wed 08:10:34 AM 38.0820 23.6140 140° Southeast 511 588 37,000  Level FlightAware
Wed 08:11:49 AM 37.9840 23.7710 128° Southeast 526 605 37,000  Level FlightAware
Wed 08:12:34 AM 37.9120 23.9090 123° Southeast 527 606 37,000  Level FlightAware
Wed 08:13:27 AM 37.8450 24.0470 122° Southeast 516 594 37,000  Level FlightAware
Wed 08:14:11 AM 37.7890 24.1590 122° Southeast 514 592 37,000  Level FlightAware
Wed 08:14:53 AM 37.7360 24.2660 122° Southeast 511 588 37,000  Level FlightAware
Wed 08:15:35 AM 37.6840 24.3680 123° Southeast 510 587 37,000  Level FlightAware
Wed 08:16:15 AM 37.6340 24.4680 122° Southeast 509 586 37,000  Level FlightAware
Wed 08:16:55 AM 37.5900 24.5540 123° Southeast 511 588 37,000  Level FlightAware
Wed 08:17:41 AM 37.5240 24.6860 122° Southeast 516 594 37,000  Level FlightAware
Wed 08:18:24 AM 37.4700 24.7900 123° Southeast 518 596 37,000  Level FlightAware
Wed 08:19:03 AM 37.4170 24.8940 123° Southeast 519 597 37,000  Level FlightAware
Wed 08:19:47 AM 37.3600 25.0060 123° Southeast 520 598 37,000  Level FlightAware
Wed 08:20:21 AM 37.3160 25.0900 123° Southeast 521 600 37,000  Level FlightAware
Wed 08:21:10 AM 37.2790 25.1610 123° Southeast 522 601 37,000  Level FlightAware
Wed 08:21:51 AM 37.1980 25.3180 123° Southeast 524 603 37,000  Level FlightAware
Wed 08:22:32 AM 37.1470 25.4170 123° Southeast 523 602 37,000  Level FlightAware
Wed 08:23:11 AM 37.0910 25.5230 123° Southeast 522 601 37,000  Level FlightAware
Wed 08:23:55 AM 37.0330 25.6350 123° Southeast 521 600 37,000  Level FlightAware
Wed 08:24:41 AM 36.9710 25.7520 124° Southeast 523 602 37,000  Level FlightAware
Wed 08:25:23 AM 36.9140 25.8590 124° Southeast 523 602 37,000  Level FlightAware
Wed 08:25:58 AM 36.8810 25.9220 123° Southeast 524 603 37,000  Level FlightAware
Wed 08:26:48 AM 36.8470 25.9840 124° Southeast 526 605 37,000  Level FlightAware
Wed 08:27:29 AM 36.7610 26.1470 123° Southeast 529 609 37,000  Level FlightAware
Wed 08:28:11 AM 36.6870 26.2840 124° Southeast 526 605 37,000  Level FlightAware
Wed 08:28:51 AM 36.6330 26.3850 124° Southeast 525 604 37,000  Level FlightAware
Wed 08:29:33 AM 36.5770 26.4890 124° Southeast 525 604 37,000  Level FlightAware
Wed 08:30:11 AM 36.5260 26.5840 124° Southeast 524 603 37,000  Level FlightAware
Wed 08:30:57 AM 36.4630 26.7010 124° Southeast 524 603 37,000  Level FlightAware
Wed 08:31:39 AM 36.4050 26.8070 124° Southeast 526 605 37,000  Level FlightAware
Wed 08:32:19 AM 36.3520 26.9040 124° Southeast 529 609 37,000  Level FlightAware
Wed 08:32:58 AM 36.3050 26.9940 123° Southeast 530 610 37,000  Level FlightAware
Wed 08:33:45 AM 36.2350 27.1200 125° Southeast 533 613 37,000  Level FlightAware
Wed 08:34:23 AM 36.1920 27.2030 123° Southeast 533 613 37,000  Level FlightAware
Wed 08:35:06 AM 36.1300 27.3150 124° Southeast 531 611 37,000  Level FlightAware
Wed 08:35:44 AM 36.0870 27.3970 123° Southeast 531 611 37,000  Level FlightAware
Wed 08:36:32 AM 36.0330 27.5010 123° Southeast 531 611 37,000  Level FlightAware
Wed 08:37:08 AM 35.9920 27.5790 123° Southeast 531 611 37,000  Level FlightAware
Wed 08:37:58 AM 35.9350 27.6870 123° Southeast 531 611 37,000  Level FlightAware
Wed 08:38:54 AM 35.8070 27.8930 127° Southeast 524 603 37,000  Level FlightAware
Wed 08:39:30 AM 35.7660 27.9670 124° Southeast 524 603 37,000  Level FlightAware
Wed 08:40:11 AM 35.7030 28.0780 125° Southeast 528 608 37,000  Level FlightAware
Wed 08:41:08 AM 35.6220 28.2230 124° Southeast 530 610 37,000  Level FlightAware
Wed 08:41:52 AM 35.5590 28.3330 125° Southeast 530 610 37,000  Level FlightAware
Wed 08:42:34 AM 35.5010 28.4340 125° Southeast 530 610 37,000  Level FlightAware
Wed 08:43:14 AM 35.4450 28.5330 125° Southeast 530 610 37,000  Level FlightAware
Wed 08:43:56 AM 35.3850 28.6370 125° Southeast 530 610 37,000  Level FlightAware
Wed 08:44:39 AM 35.3450 28.7060 125° Southeast 531 611 37,000  Level FlightAware
Wed 08:45:16 AM 35.2730 28.8330 125° Southeast 532 612 37,000  Level FlightAware
Wed 08:46:34 AM 35.1620 29.0250 125° Southeast 532 612 37,000  Level FlightAware
Wed 08:47:09 AM 35.1120 29.1100 126° Southeast 531 611 37,000  Level FlightAware
Wed 08:47:57 AM 35.0580 29.2040 125° Southeast 531 611 37,000  Level FlightAware
Wed 08:49:24 AM 34.9330 29.4180 125° Southeast 531 611 37,000  Level FlightAware
Wed 08:49:56 AM 34.8740 29.5150 127° Southeast 37,000  Level FlightAware
Wed 08:50:15 AM 34.8470 29.5610 126° Southeast 529 609 37,000  Level FlightAware
Wed 08:51:26 AM 34.7520 29.7230 125° Southeast 527 606 37,000  Level FlightAware
Wed 08:52:06 AM 34.6890 29.8290 126° Southeast 527 606 37,000  Level FlightAware
Wed 08:52:45 AM 34.6370 29.9160 126° Southeast 525 604 37,000  Level FlightAware
Wed 08:53:30 AM 34.5800 30.0160 125° Southeast 525 604 37,000  Level FlightAware
Wed 08:54:11 AM 34.5210 30.1330 121° Southeast 531 611 37,000  Level FlightAware
Wed 08:54:58 AM 34.4710 30.2410 119° Southeast 532 612 37,000  Level FlightAware
Wed 08:55:38 AM 34.4180 30.3490 121° Southeast 531 611 37,000  Level FlightAware
Wed 08:56:17 AM 34.3640 30.4610 120° Southeast 531 611 37,000  Level FlightAware
Wed 08:57:03 AM 34.3060 30.5820 120° Southeast 534 615 37,000  Level FlightAware
Wed 08:57:42 AM 34.2590 30.6780 121° Southeast 533 613 37,000  Level FlightAware
Wed 08:58:23 AM 34.2050 30.7870 121° Southeast 533 613 37,000  Level FlightAware
Wed 08:59:07 AM 34.1550 30.8900 120° Southeast 533 613 37,000  Level FlightAware
Wed 08:59:47 AM 34.1010 30.9990 121° Southeast 529 609 37,000  Level FlightAware
Wed 09:00:54 AM 34.0260 31.1530 120° Southeast 529 609 37,000  Level FlightAware
Wed 09:01:38 AM 33.9600 31.2880 120° Southeast 534 615 37,000  Level FlightAware
Wed 09:02:18 AM 33.9080 31.3930 121° Southeast 535 616 37,000  Level FlightAware
Wed 09:03:01 AM 33.8580 31.4950 121° Southeast 535 616 37,000  Level FlightAware
Wed 09:03:43 AM 33.8010 31.6100 121° Southeast 535 616 37,000  Level FlightAware
Wed 09:04:24 AM 33.7490 31.7130 121° Southeast 534 615 37,000  Level FlightAware
Wed 09:05:04 AM 33.6970 31.8170 121° Southeast 534 615 37,000  Level FlightAware
Wed 09:05:50 AM 33.6410 31.9320 120° Southeast 529 609 37,000  Level FlightAware
Wed 09:06:31 AM 33.5910 32.0320 121° Southeast 528 608 37,000  Level FlightAware
Wed 09:07:12 AM 33.5560 32.1040 120° Southeast 527 606 37,000  Level FlightAware
Wed 09:07:56 AM 33.4830 32.2520 121° Southeast 528 608 37,000  Level FlightAware
Wed 09:08:47 AM 33.4180 32.3810 121° Southeast 528 608 37,000 -316 Level FlightAware
Wed 09:09:31 AM 33.3650 32.4840 122° Southeast 507 583 36,500 -1,062 Descending FlightAware
Wed 09:10:40 AM 33.2830 32.6450 121° Southeast 499 574 35,000 -1,614 Descending FlightAware
Wed 09:11:56 AM 33.1900 32.8270 121° Southeast 483 556 32,600 -1,914 Descending FlightAware
Wed 09:12:36 AM 33.1450 32.9150 121° Southeast 478 550 31,300 -1,361 Descending FlightAware
Wed 09:13:33 AM 33.0860 33.0330 121° Southeast 467 537 30,400 -557 Descending FlightAware
Wed 09:14:13 AM 33.0490 33.1090 120° Southeast 467 537 30,400  Level FlightAware
Wed 09:14:51 AM 33.0140 33.1810 120° Southeast 467 537 30,400 -3,687 Level FlightAware
Wed 09:15:36 AM 32.9440 33.3040 124° Southeast 435 501 25,300 -3,545 Descending FlightAware
Wed 09:16:17 AM 32.9120 33.3650 122° Southeast 24,400 -1,862 Descending FlightAware
Wed 09:17:03 AM 32.8540 33.4780 121° Southeast 408 470 22,600 -2,023 Descending FlightAware
Wed 09:17:43 AM 32.8150 33.5530 122° Southeast 396 456 21,500 -1,171 Descending FlightAware
Wed 09:18:25 AM 32.7760 33.6270 122° Southeast 374 430 21,000 -767 Descending FlightAware
Wed 09:19:09 AM 32.7360 33.7050 121° Southeast 366 421 20,400 -1,256 Descending FlightAware
Wed 09:19:51 AM 32.6990 33.7760 122° Southeast 361 415 19,200 -2,000 Descending FlightAware
Wed 09:20:51 AM 32.6450 33.8780 122° Southeast 378 435 17,000 -2,250 Descending FlightAware
Wed 09:21:35 AM 32.6030 33.9570 122° Southeast 390 449 15,300 -2,214 Descending FlightAware
Wed 09:22:15 AM 32.5650 34.0290 122° Southeast 384 442 13,900 -2,175 Descending FlightAware
Wed 09:22:55 AM 32.5270 34.1010 122° Southeast 381 438 12,400 -2,163 Descending FlightAware
Wed 09:23:41 AM 32.4810 34.1780 125° Southeast 369 425 10,800 -1,348 Descending FlightAware
Wed 09:24:24 AM 32.4330 34.2360 134° Southeast 327 376 10,400 -500 Descending FlightAware
Wed 09:25:05 AM 32.3910 34.2860 135° Southeast 298 343 10,100 -667 Descending FlightAware
Wed 09:25:18 AM 32.3780 34.3000 138° Southeast 296 341 9,800 -1,535 Descending FlightAware
Wed 09:25:48 AM 32.3500 34.3340 134° Southeast 294 338 9,000 -1,463 Descending FlightAware
Wed 09:25:59 AM 32.3380 34.3480 135° Southeast 292 336 8,800 -279 Descending FlightAware
Wed 09:26:31 AM 32.3130 34.3780 135° Southeast 290 334 8,800  Level FlightAware
Wed 09:26:55 AM 32.2930 34.4010 136° Southeast 290 334 8,800  Level FlightAware
Wed 09:27:07 AM 32.2830 34.4120 137° Southeast 290 334 8,800  Level FlightAware
Wed 09:27:56 AM 32.2440 34.4590 134° Southeast 290 334 8,800  Level FlightAware
Wed 09:30:00 AM 32.0679 34.7386 115° Southeast  Level FlightAware
Wed 09:31:00 AM 32.0000 34.8667 125° Southeast  Level FlightAware
Wed 09:32:00 AM 32.0095 34.8769 125° Southeast  Level Estimated
Wed 09:33:00 AM 32.0095 34.8769 125° Southeast  Level Estimated
Wed 09:34:00 AM 32.0095 34.8769 125° Southeast  Level Estimated
Wed 09:35:00 AM 32.0095 34.8769 125° Southeast  Level Estimated
Wed 09:36:00 AM 32.0095 34.8769 125° Southeast  Level Estimated
Wed 09:37:00 AM 32.0095 34.8769 125° Southeast  Level Estimated
Wed 09:38:00 AM 32.0095 34.8769 125° Southeast  Level Estimated

Login

Don't have an account? Register now (free) for customized features, flight alerts, and more!